Time;durP1;ratioP1;P1;durP2;ratioP2;P2;SDS_P1;SDS_P2;PMS_P1;PMS_P2;Temp;Humidity;BMP_temperature;BMP_pressure;BME280_temperature;BME280_humidity;BME280_pressure;Samples;Min_cycle;Max_cycle;Signal;HPM_P1;HPM_P2
2022/03/17 00:00:20;;;;;;;27.67;17.05;;;10.20;99.90;;;;;;5035501;28;20084;-72
2022/03/17 00:02:46;;;;;;;27.35;17.65;;;10.20;99.90;;;;;;5050695;28;20132;-72
2022/03/17 00:05:12;;;;;;;31.67;17.73;;;10.20;99.90;;;;;;5057005;28;20072;-72
2022/03/17 00:07:39;;;;;;;30.67;17.50;;;10.20;99.90;;;;;;5037239;28;20502;-72
2022/03/17 00:10:15;;;;;;;30.15;17.77;;;10.20;99.90;;;;;;5037658;28;20087;-72
2022/03/17 00:12:42;;;;;;;27.98;18.00;;;10.20;99.90;;;;;;5054286;28;20666;-72
2022/03/17 00:15:08;;;;;;;32.55;19.10;;;10.20;99.90;;;;;;5057147;28;20049;-72
2022/03/17 00:17:34;;;;;;;31.48;18.23;;;10.10;99.90;;;;;;5032007;28;20400;-72
2022/03/17 00:20:00;;;;;;;29.63;17.17;;;10.20;99.90;;;;;;5050764;28;20788;-72
2022/03/17 00:22:26;;;;;;;32.70;18.33;;;10.10;99.90;;;;;;5030274;28;20045;-72
2022/03/17 00:24:51;;;;;;;28.48;17.95;;;10.10;99.90;;;;;;5050515;28;20039;-72
2022/03/17 00:27:17;;;;;;;30.70;16.67;;;10.10;99.90;;;;;;5053184;28;20517;-72
2022/03/17 00:29:42;;;;;;;27.92;17.25;;;10.10;99.90;;;;;;5050787;28;20645;-72
2022/03/17 00:32:08;;;;;;;32.13;17.90;;;10.10;99.90;;;;;;5056171;28;20495;-72
2022/03/17 00:35:35;;;;;;;28.85;17.35;;;10.10;99.90;;;;;;5054937;28;20781;-72
2022/03/17 00:37:23;;;;;;;32.40;18.70;;;10.10;99.90;;;;;;5035578;28;20040;-72
2022/03/17 00:39:49;;;;;;;30.00;17.70;;;10.10;99.90;;;;;;5052833;28;20052;-72
2022/03/17 00:42:15;;;;;;;29.73;18.30;;;10.10;99.90;;;;;;5055892;28;20122;-72
2022/03/17 00:44:41;;;;;;;31.35;17.70;;;10.00;99.90;;;;;;5053076;28;20040;-72
2022/03/17 00:47:07;;;;;;;27.45;17.73;;;10.00;99.90;;;;;;5056093;28;20720;-72
2022/03/17 00:49:33;;;;;;;33.70;19.48;;;10.00;99.90;;;;;;5048189;28;20138;-72
2022/03/17 00:51:59;;;;;;;28.08;17.80;;;10.10;99.90;;;;;;5054062;28;20037;-71
2022/03/17 00:54:26;;;;;;;32.40;17.92;;;10.00;99.90;;;;;;5032701;28;20056;-72
2022/03/17 00:56:52;;;;;;;28.60;18.00;;;10.00;99.90;;;;;;5035167;28;20111;-72
2022/03/17 00:59:18;;;;;;;28.92;18.23;;;10.10;99.90;;;;;;5035963;28;20409;-72
2022/03/17 01:01:44;;;;;;;30.98;18.05;;;10.10;99.90;;;;;;5050219;28;20083;-72
2022/03/17 01:04:09;;;;;;;28.95;18.25;;;10.10;99.90;;;;;;5046169;28;20054;-72
2022/03/17 01:06:35;;;;;;;28.23;18.15;;;10.00;99.90;;;;;;5035247;28;20140;-72
2022/03/17 01:09:00;;;;;;;25.48;17.55;;;10.10;99.90;;;;;;5049466;28;20782;-72
2022/03/17 01:11:26;;;;;;;27.63;17.23;;;10.10;99.90;;;;;;5055625;28;20039;-72
2022/03/17 01:13:51;;;;;;;27.45;18.30;;;10.00;99.90;;;;;;5051557;28;20537;-71
2022/03/17 01:16:17;;;;;;;30.65;18.50;;;10.10;99.90;;;;;;5032942;28;20678;-72
2022/03/17 01:18:42;;;;;;;30.60;18.67;;;10.10;99.90;;;;;;5044804;28;20697;-72
2022/03/17 01:21:08;;;;;;;28.25;17.80;;;10.10;99.90;;;;;;5034315;28;20048;-72
2022/03/17 01:23:34;;;;;;;29.17;17.27;;;10.10;99.90;;;;;;5034485;28;20045;-72
2022/03/17 01:26:00;;;;;;;29.58;19.02;;;10.10;99.90;;;;;;5067386;28;20797;-72
2022/03/17 01:28:25;;;;;;;31.67;17.60;;;10.10;99.90;;;;;;5054261;28;20173;-72
2022/03/17 01:30:52;;;;;;;33.33;18.52;;;10.10;99.90;;;;;;5027315;28;20117;-72
2022/03/17 01:33:18;;;;;;;32.40;19.20;;;10.10;99.90;;;;;;5029773;28;20929;-72
2022/03/17 01:35:44;;;;;;;28.33;17.55;;;10.10;99.90;;;;;;5053930;28;20795;-72
2022/03/17 01:38:09;;;;;;;31.05;18.10;;;10.00;99.90;;;;;;5047417;28;20136;-72
2022/03/17 01:40:35;;;;;;;28.00;17.83;;;10.10;99.90;;;;;;5031930;28;20073;-72
2022/03/17 01:43:01;;;;;;;30.08;18.38;;;10.00;99.90;;;;;;5051376;28;20040;-72
2022/03/17 01:45:27;;;;;;;35.10;18.92;;;10.10;99.90;;;;;;5051679;28;20463;-72
2022/03/17 01:47:53;;;;;;;31.58;19.08;;;10.00;99.90;;;;;;5050397;28;20607;-72
2022/03/17 01:50:19;;;;;;;32.72;18.70;;;10.00;99.90;;;;;;5043340;28;20044;-72
2022/03/17 01:52:45;;;;;;;28.85;18.23;;;10.00;99.90;;;;;;5053836;28;20564;-72
2022/03/17 01:55:13;;;;;;;29.38;18.80;;;10.00;99.90;;;;;;5046084;28;20045;-72
2022/03/17 01:57:39;;;;;;;31.88;19.45;;;10.00;99.90;;;;;;5054349;28;20853;-72
2022/03/17 02:00:07;;;;;;;29.25;17.70;;;10.00;99.90;;;;;;5040742;28;20048;-72
2022/03/17 02:02:32;;;;;;;30.30;18.05;;;10.00;99.90;;;;;;5055255;28;20125;-72
2022/03/17 02:04:58;;;;;;;30.60;18.67;;;10.00;99.90;;;;;;5020728;28;20488;-72
2022/03/17 02:07:24;;;;;;;30.33;18.70;;;10.00;99.90;;;;;;5045361;28;20083;-72
2022/03/17 02:09:49;;;;;;;32.97;19.90;;;10.00;99.90;;;;;;5046217;28;20044;-72
2022/03/17 02:15:03;;;;;;;30.98;18.73;;;10.00;99.90;;;;;;5025083;28;20155;-72
2022/03/17 02:17:31;;;;;;;36.70;19.38;;;10.00;99.90;;;;;;5032189;28;20049;-72
2022/03/17 02:20:02;;;;;;;35.60;19.25;;;10.00;99.90;;;;;;5047835;28;20109;-72
2022/03/17 02:22:29;;;;;;;33.53;18.52;;;10.00;99.90;;;;;;5043994;28;20045;-72
2022/03/17 02:27:45;;;;;;;34.78;18.98;;;9.90;99.90;;;;;;5054831;28;20090;-71
2022/03/17 02:30:12;;;;;;;32.40;18.83;;;10.00;99.90;;;;;;5050661;28;20063;-72
2022/03/17 02:32:38;;;;;;;32.08;19.33;;;9.90;99.90;;;;;;5036819;28;20685;-72
2022/03/17 02:35:09;;;;;;;33.20;19.02;;;9.90;99.90;;;;;;5054078;28;20139;-72
2022/03/17 02:37:36;;;;;;;33.85;20.05;;;9.90;99.90;;;;;;5034868;28;20056;-72
2022/03/17 02:40:04;;;;;;;29.92;18.50;;;9.90;99.90;;;;;;5049196;28;20131;-72
2022/03/17 02:42:30;;;;;;;34.15;19.50;;;9.90;99.90;;;;;;5033884;28;20724;-72
2022/03/17 02:45:01;;;;;;;33.47;18.60;;;9.90;99.90;;;;;;5033511;28;20443;-72
2022/03/17 02:47:27;;;;;;;30.60;19.15;;;10.00;99.90;;;;;;5053651;28;20044;-72
2022/03/17 02:49:55;;;;;;;32.00;18.42;;;10.00;99.90;;;;;;5033048;28;20064;-72
2022/03/17 02:52:22;;;;;;;28.30;18.30;;;10.00;99.90;;;;;;5052569;28;20052;-72
2022/03/17 02:54:48;;;;;;;27.95;19.00;;;10.00;99.90;;;;;;5032125;28;20086;-72
2022/03/17 02:57:14;;;;;;;29.60;18.73;;;10.00;99.90;;;;;;5031119;28;20606;-72
2022/03/17 02:59:40;;;;;;;32.42;19.85;;;10.10;99.90;;;;;;5054589;28;20048;-72
2022/03/17 03:02:05;;;;;;;33.95;18.70;;;10.10;99.90;;;;;;5050356;28;20045;-72
2022/03/17 03:04:34;;;;;;;28.80;18.33;;;10.10;99.90;;;;;;5030646;28;20654;-72
2022/03/17 03:07:04;;;;;;;33.97;18.50;;;10.20;99.90;;;;;;5061838;28;20048;-72
2022/03/17 03:09:30;;;;;;;31.50;19.52;;;10.20;99.90;;;;;;5035316;28;20044;-72
2022/03/17 03:11:56;;;;;;;31.63;18.88;;;10.20;99.90;;;;;;5029639;28;20048;-72
2022/03/17 03:14:22;;;;;;;30.80;19.23;;;10.30;99.90;;;;;;5031280;28;20090;-72
2022/03/17 03:16:48;;;;;;;32.65;20.20;;;10.30;99.90;;;;;;5029410;28;20049;-72
2022/03/17 03:19:14;;;;;;;29.67;18.98;;;10.30;99.90;;;;;;5050350;28;20048;-72
2022/03/17 03:21:39;;;;;;;29.95;19.10;;;10.30;99.90;;;;;;5035360;28;20105;-72
2022/03/17 03:24:05;;;;;;;34.35;19.63;;;10.30;99.90;;;;;;5049806;28;20048;-72
2022/03/17 03:26:31;;;;;;;31.80;19.20;;;10.30;99.90;;;;;;5032076;28;20060;-72
2022/03/17 03:28:56;;;;;;;33.03;20.58;;;10.30;99.90;;;;;;5034195;28;20067;-72
2022/03/17 03:31:23;;;;;;;29.80;19.23;;;10.30;99.90;;;;;;5035778;28;20558;-71
2022/03/17 03:33:49;;;;;;;30.20;18.85;;;10.30;99.90;;;;;;5055818;28;20893;-72
2022/03/17 03:38:59;;;;;;;34.95;20.85;;;10.30;99.90;;;;;;5052159;28;20052;-72
2022/03/17 03:41:25;;;;;;;32.30;18.58;;;10.40;99.90;;;;;;5050895;28;20499;-72
2022/03/17 03:43:50;;;;;;;29.88;20.73;;;10.40;99.90;;;;;;5050090;28;20123;-72
2022/03/17 03:46:16;;;;;;;29.05;18.98;;;10.40;99.90;;;;;;5031990;28;20057;-72
2022/03/17 03:48:42;;;;;;;31.85;21.08;;;10.40;99.90;;;;;;5052812;28;20063;-72
2022/03/17 03:51:07;;;;;;;31.88;21.23;;;10.40;99.90;;;;;;5051987;28;20378;-72
2022/03/17 03:56:17;;;;;;;33.65;20.98;;;10.40;99.90;;;;;;5048723;28;20048;-72
2022/03/17 03:58:43;;;;;;;32.38;19.60;;;10.40;99.90;;;;;;5031024;28;20076;-72
2022/03/17 04:01:08;;;;;;;33.10;20.55;;;10.50;99.90;;;;;;5034651;28;20090;-72
2022/03/17 04:03:34;;;;;;;31.98;20.13;;;10.50;99.90;;;;;;5057257;28;20044;-72
2022/03/17 04:06:00;;;;;;;31.52;20.02;;;10.50;99.90;;;;;;5032695;28;20040;-72
2022/03/17 04:08:25;;;;;;;31.95;20.90;;;10.50;99.90;;;;;;5057164;28;20170;-72
2022/03/17 04:10:51;;;;;;;34.38;19.88;;;10.60;99.90;;;;;;5056179;28;20429;-72
2022/03/17 04:13:16;;;;;;;32.42;21.00;;;10.50;99.90;;;;;;5030120;28;20786;-72
2022/03/17 04:15:42;;;;;;;33.05;20.63;;;10.60;99.90;;;;;;5033576;28;20786;-72
2022/03/17 04:18:08;;;;;;;37.30;21.13;;;10.60;99.90;;;;;;5055634;28;20067;-72
2022/03/17 04:20:34;;;;;;;34.63;22.38;;;10.60;99.90;;;;;;5034451;28;20041;-72
2022/03/17 04:22:59;;;;;;;36.53;23.30;;;10.60;99.90;;;;;;5024481;28;20049;-72
2022/03/17 04:25:25;;;;;;;38.40;22.83;;;10.60;99.90;;;;;;5040835;28;20083;-72
2022/03/17 04:27:51;;;;;;;36.83;22.83;;;10.50;99.90;;;;;;5029136;28;20045;-72
2022/03/17 04:30:16;;;;;;;37.13;22.25;;;10.50;99.90;;;;;;5035453;28;20126;-72
2022/03/17 04:32:42;;;;;;;39.53;24.48;;;10.50;99.90;;;;;;5023508;28;20056;-72
2022/03/17 04:35:08;;;;;;;42.85;25.17;;;10.40;99.90;;;;;;5042038;28;20120;-72
2022/03/17 04:37:34;;;;;;;40.83;24.40;;;10.40;99.90;;;;;;5023686;28;20409;-72
2022/03/17 04:39:59;;;;;;;41.65;26.00;;;10.40;99.90;;;;;;5036142;28;20056;-72
2022/03/17 04:42:25;;;;;;;40.30;25.83;;;10.40;99.90;;;;;;5050583;28;20064;-72
2022/03/17 04:44:51;;;;;;;43.63;25.95;;;10.30;99.90;;;;;;5028952;28;20758;-71
2022/03/17 04:47:16;;;;;;;43.00;27.55;;;10.20;99.90;;;;;;5063958;28;20048;-72
2022/03/17 04:49:42;;;;;;;43.10;26.52;;;10.20;99.90;;;;;;5055941;28;20048;-72
2022/03/17 04:54:52;;;;;;;44.78;27.15;;;10.00;99.90;;;;;;5055441;28;20052;-72
2022/03/17 04:57:18;;;;;;;49.55;29.88;;;10.00;99.90;;;;;;5036295;28;20056;-72
2022/03/17 04:59:44;;;;;;;48.38;29.52;;;9.90;99.90;;;;;;5053051;28;20098;-72
2022/03/17 05:02:13;;;;;;;49.63;30.80;;;9.80;99.90;;;;;;5069581;28;20190;-72
2022/03/17 05:04:39;;;;;;;47.63;29.58;;;9.70;99.90;;;;;;5030188;28;20059;-72
2022/03/17 05:07:04;;;;;;;52.50;30.90;;;9.70;99.90;;;;;;5036128;28;20052;-72
2022/03/17 05:09:30;;;;;;;53.83;32.35;;;9.60;99.90;;;;;;5056268;28;20754;-72
2022/03/17 05:11:55;;;;;;;51.30;31.80;;;9.60;99.90;;;;;;5032191;28;20122;-72
2022/03/17 05:14:21;;;;;;;53.22;31.92;;;9.60;99.90;;;;;;5032160;28;20696;-71
2022/03/17 05:16:46;;;;;;;52.80;33.67;;;9.60;99.90;;;;;;5028502;28;20546;-72
2022/03/17 05:19:12;;;;;;;51.72;28.02;;;9.60;99.90;;;;;;5036671;28;20056;-72
2022/03/17 05:21:38;;;;;;;58.17;33.72;;;9.50;99.90;;;;;;5052067;28;20040;-71
2022/03/17 05:24:04;;;;;;;52.10;32.83;;;9.50;99.90;;;;;;5032545;28;20064;-72
2022/03/17 05:26:30;;;;;;;51.35;31.17;;;9.50;99.90;;;;;;5046750;28;20249;-72
2022/03/17 05:28:56;;;;;;;43.88;26.48;;;9.40;99.90;;;;;;5050093;28;20773;-72
2022/03/17 05:31:21;;;;;;;36.25;21.35;;;9.50;99.90;;;;;;5054586;28;20800;-72
2022/03/17 05:33:47;;;;;;;23.02;14.07;;;9.40;99.90;;;;;;5054169;28;20040;-72
2022/03/17 05:36:13;;;;;;;19.48;11.10;;;9.40;99.90;;;;;;5048733;28;20107;-72
2022/03/17 05:38:38;;;;;;;14.30;8.43;;;9.40;99.90;;;;;;5055028;28;20582;-72
2022/03/17 05:41:05;;;;;;;12.45;7.70;;;9.30;99.90;;;;;;5051939;28;20090;-72
2022/03/17 05:43:31;;;;;;;14.57;7.68;;;9.20;99.90;;;;;;5051445;28;20048;-72
2022/03/17 05:45:57;;;;;;;12.55;7.30;;;9.10;99.90;;;;;;5029868;28;20128;-72
2022/03/17 05:48:23;;;;;;;11.90;7.80;;;9.00;99.90;;;;;;5054139;28;20048;-71
2022/03/17 05:50:49;;;;;;;12.07;6.93;;;8.90;99.90;;;;;;5035740;28;20843;-72
2022/03/17 05:53:14;;;;;;;11.90;7.22;;;8.80;99.90;;;;;;5054158;28;20048;-72
2022/03/17 05:55:40;;;;;;;11.75;6.88;;;8.80;99.90;;;;;;5042937;28;20049;-72
2022/03/17 05:58:06;;;;;;;12.75;7.30;;;8.70;99.90;;;;;;5030841;28;20072;-72
2022/03/17 06:00:33;;;;;;;13.88;8.00;;;8.70;99.90;;;;;;5030769;28;20572;-72
2022/03/17 06:02:59;;;;;;;14.27;8.55;;;8.60;99.90;;;;;;5042692;28;20136;-72
2022/03/17 06:05:26;;;;;;;14.07;8.10;;;8.60;99.90;;;;;;5033466;28;20053;-72
2022/03/17 06:07:54;;;;;;;19.17;10.00;;;8.50;99.90;;;;;;5050585;28;20486;-71
2022/03/17 06:10:22;;;;;;;17.60;9.75;;;8.50;99.90;;;;;;5050806;28;20040;-71
2022/03/17 06:12:51;;;;;;;17.23;9.70;;;8.50;99.90;;;;;;5057454;28;20052;-71
2022/03/17 06:15:19;;;;;;;18.02;9.05;;;8.50;99.90;;;;;;5034456;28;20045;-72
2022/03/17 06:17:49;;;;;;;21.63;11.00;;;8.40;99.90;;;;;;5052083;28;20602;-71
2022/03/17 06:20:20;;;;;;;20.65;9.88;;;8.40;99.90;;;;;;5034386;28;20037;-72
2022/03/17 06:22:48;;;;;;;20.25;10.85;;;8.40;99.90;;;;;;5028839;28;20049;-72
2022/03/17 06:25:16;;;;;;;22.08;10.57;;;8.40;99.90;;;;;;5048134;28;20037;-71
2022/03/17 06:27:47;;;;;;;22.00;10.35;;;8.40;99.90;;;;;;5032049;28;20049;-72
2022/03/17 06:30:17;;;;;;;17.50;9.32;;;8.50;99.90;;;;;;5051031;28;20053;-72
2022/03/17 06:32:44;;;;;;;21.65;8.52;;;8.40;99.90;;;;;;5038327;28;20048;-72
2022/03/17 06:35:18;;;;;;;19.35;7.47;;;8.30;99.90;;;;;;5058514;28;20047;-73
2022/03/17 06:37:46;;;;;;;21.90;8.07;;;8.30;99.90;;;;;;5058439;28;20072;-72
2022/03/17 06:40:13;;;;;;;15.82;6.97;;;8.30;99.90;;;;;;5033390;28;20073;-72
2022/03/17 06:42:38;;;;;;;18.85;6.82;;;8.30;99.90;;;;;;5036873;28;20053;-72
2022/03/17 06:45:06;;;;;;;15.88;6.00;;;8.30;99.90;;;;;;5029548;28;20118;-72
2022/03/17 06:47:32;;;;;;;13.30;5.53;;;8.30;99.90;;;;;;5030137;28;20125;-72
2022/03/17 06:49:58;;;;;;;10.82;5.75;;;8.30;99.90;;;;;;5044393;28;20057;-72
2022/03/17 06:52:24;;;;;;;12.45;5.97;;;8.30;99.90;;;;;;5034285;28;20040;-72
2022/03/17 06:54:52;;;;;;;13.43;5.22;;;8.30;99.90;;;;;;5057855;28;20040;-72
2022/03/17 06:57:22;;;;;;;12.43;5.65;;;8.20;99.90;;;;;;5028549;28;20057;-72
2022/03/17 06:59:49;;;;;;;15.15;5.57;;;8.20;99.90;;;;;;5052649;28;20059;-72
2022/03/17 07:02:15;;;;;;;14.40;5.50;;;8.20;99.90;;;;;;5057141;28;20583;-72
2022/03/17 07:04:42;;;;;;;11.35;5.07;;;8.20;99.90;;;;;;5064519;28;20108;-72
2022/03/17 07:07:08;;;;;;;15.43;4.57;;;8.20;99.90;;;;;;5067826;28;20090;-72
2022/03/17 07:09:34;;;;;;;15.10;4.72;;;8.20;99.90;;;;;;5042253;28;20048;-71
2022/03/17 07:12:00;;;;;;;14.20;4.85;;;8.20;99.90;;;;;;5036520;28;20053;-72
2022/03/17 07:14:26;;;;;;;14.07;5.07;;;8.10;99.90;;;;;;5058668;28;20102;-73
2022/03/17 07:16:55;;;;;;;10.63;3.80;;;8.30;99.90;;;;;;5054234;28;20553;-73
2022/03/17 07:19:22;;;;;;;14.73;4.32;;;8.10;99.90;;;;;;5061292;28;20036;-73
2022/03/17 07:21:47;;;;;;;9.45;3.70;;;8.10;99.90;;;;;;5061341;28;20040;-72
2022/03/17 07:24:13;;;;;;;10.15;3.60;;;8.10;99.90;;;;;;5059416;28;20037;-72
2022/03/17 07:26:40;;;;;;;13.52;3.15;;;8.10;99.90;;;;;;5041912;28;20055;-73
2022/03/17 07:29:06;;;;;;;11.30;3.70;;;8.10;99.90;;;;;;5060034;28;20053;-73
2022/03/17 07:31:32;;;;;;;11.70;2.70;;;8.10;99.90;;;;;;5024230;28;20053;-74
2022/03/17 07:33:59;;;;;;;12.23;3.05;;;8.10;99.90;;;;;;5058752;28;20075;-74
2022/03/17 07:36:28;;;;;;;12.23;2.72;;;8.10;99.90;;;;;;5048131;28;20720;-75
2022/03/17 07:38:58;;;;;;;10.07;2.28;;;8.10;99.90;;;;;;5053179;28;20053;-73
2022/03/17 07:41:28;;;;;;;12.23;2.42;;;8.00;99.90;;;;;;5050451;28;20059;-73
2022/03/17 07:43:54;;;;;;;10.82;2.38;;;8.00;99.90;;;;;;5054322;28;20105;-74
2022/03/17 07:46:20;;;;;;;16.47;2.87;;;8.00;99.90;;;;;;5061113;28;20225;-75
2022/03/17 07:48:46;;;;;;;9.80;2.03;;;8.00;99.90;;;;;;5061525;28;20181;-74
2022/03/17 07:51:12;;;;;;;8.10;1.38;;;8.00;99.90;;;;;;5039526;28;20052;-74
2022/03/17 07:53:39;;;;;;;12.60;1.85;;;8.00;99.90;;;;;;5060839;28;20483;-74
2022/03/17 07:56:11;;;;;;;12.07;2.10;;;8.10;99.90;;;;;;5061402;28;20044;-74
2022/03/17 07:58:40;;;;;;;9.45;1.95;;;8.10;99.90;;;;;;5061835;28;20062;-74
2022/03/17 08:01:10;;;;;;;11.02;1.80;;;8.00;99.90;;;;;;5061191;28;20056;-74
2022/03/17 08:03:38;;;;;;;12.93;2.28;;;8.10;99.90;;;;;;5055653;28;20099;-74
2022/03/17 08:06:04;;;;;;;16.40;2.17;;;8.00;99.90;;;;;;5056761;28;20094;-74
2022/03/17 08:08:29;;;;;;;12.73;1.85;;;8.00;99.90;;;;;;5047878;28;20143;-74
2022/03/17 08:10:57;;;;;;;10.32;1.40;;;8.10;99.90;;;;;;5051037;28;20102;-73
2022/03/17 08:13:25;;;;;;;8.32;1.63;;;8.00;99.90;;;;;;5055430;28;20048;-74
2022/03/17 08:15:51;;;;;;;12.05;1.50;;;8.00;99.90;;;;;;5077496;28;20090;-74
2022/03/17 08:18:16;;;;;;;12.32;1.85;;;8.00;99.90;;;;;;5060899;28;20120;-73
2022/03/17 08:20:42;;;;;;;7.30;1.50;;;8.00;99.90;;;;;;5041641;28;20055;-74
2022/03/17 08:23:08;;;;;;;9.93;1.20;;;8.10;99.90;;;;;;5060440;28;20092;-74
2022/03/17 08:25:35;;;;;;;15.27;1.80;;;8.10;99.90;;;;;;5059410;28;20510;-74
2022/03/17 08:28:04;;;;;;;8.65;1.20;;;8.00;99.90;;;;;;5060793;28;20048;-73
2022/03/17 08:30:30;;;;;;;9.32;1.20;;;8.00;99.90;;;;;;5038693;28;20045;-73
2022/03/17 08:32:58;;;;;;;14.85;1.60;;;8.00;99.90;;;;;;5036140;28;20045;-74
2022/03/17 08:35:24;;;;;;;7.20;1.13;;;8.10;99.90;;;;;;5054167;28;20460;-73
2022/03/17 08:37:50;;;;;;;9.20;1.63;;;8.10;99.90;;;;;;5060584;28;20048;-74
2022/03/17 08:40:16;;;;;;;10.02;1.08;;;8.10;99.90;;;;;;5059023;28;20044;-74
2022/03/17 08:42:42;;;;;;;9.27;1.13;;;8.10;99.90;;;;;;5060367;28;20040;-73
2022/03/17 08:50:43;;;;;;;16.33;1.52;;;8.20;99.90;;;;;;5053397;28;20484;-74
2022/03/17 08:53:09;;;;;;;14.65;2.20;;;8.20;99.90;;;;;;5059447;28;20053;-73
2022/03/17 08:55:39;;;;;;;11.93;1.17;;;8.20;99.90;;;;;;5041681;28;20154;-74
2022/03/17 08:58:05;;;;;;;10.70;1.20;;;8.10;99.90;;;;;;5075769;28;20048;-73
2022/03/17 09:00:35;;;;;;;8.07;1.30;;;8.20;99.90;;;;;;5059542;28;20088;-74
2022/03/17 09:03:02;;;;;;;13.30;2.13;;;8.20;99.90;;;;;;5036014;28;20048;-74
2022/03/17 09:05:30;;;;;;;13.82;2.25;;;8.20;99.90;;;;;;5055061;28;20055;-74
2022/03/17 09:07:58;;;;;;;14.27;2.03;;;8.10;99.90;;;;;;5058982;28;20064;-74
2022/03/17 09:10:24;;;;;;;11.05;1.60;;;8.10;99.90;;;;;;5037428;28;20056;-75
2022/03/17 09:12:55;;;;;;;15.55;1.92;;;8.10;99.90;;;;;;5038713;28;20052;-74
2022/03/17 09:15:21;;;;;;;15.15;2.28;;;8.10;99.90;;;;;;5037260;28;20404;-74
2022/03/17 09:17:47;;;;;;;13.88;1.77;;;8.10;99.90;;;;;;5027823;28;20136;-75
2022/03/17 09:20:15;;;;;;;10.38;1.80;;;8.10;99.90;;;;;;5026195;28;20658;-74
2022/03/17 09:22:45;;;;;;;17.45;2.03;;;8.20;99.90;;;;;;5060298;28;20488;-74
2022/03/17 09:25:11;;;;;;;11.65;1.55;;;8.20;99.90;;;;;;5059563;28;20044;-75
2022/03/17 09:27:37;;;;;;;13.15;1.63;;;8.30;99.90;;;;;;5037451;28;20467;-74
2022/03/17 09:30:06;;;;;;;10.45;1.90;;;8.40;99.90;;;;;;5046752;28;20052;-75
2022/03/17 09:32:33;;;;;;;7.30;1.48;;;8.40;99.90;;;;;;5030986;28;20610;-75
2022/03/17 09:35:02;;;;;;;11.38;1.63;;;8.40;99.90;;;;;;5039936;28;20056;-75
2022/03/17 09:37:28;;;;;;;14.85;1.27;;;8.40;99.90;;;;;;5039840;28;20037;-74
2022/03/17 09:39:54;;;;;;;10.38;1.30;;;8.30;99.90;;;;;;5040273;28;20036;-74
2022/03/17 09:42:21;;;;;;;11.90;2.90;;;8.50;99.90;;;;;;5046263;28;20053;-75
2022/03/17 09:44:54;;;;;;;15.90;1.20;;;8.30;99.90;;;;;;5058467;28;20127;-74
2022/03/17 09:47:22;;;;;;;9.48;1.33;;;8.30;99.90;;;;;;5059322;28;20130;-75
2022/03/17 09:49:53;;;;;;;10.65;1.40;;;8.30;99.90;;;;;;5057568;28;20139;-75
2022/03/17 09:52:20;;;;;;;11.25;1.52;;;8.20;99.90;;;;;;5058332;28;20048;-76
2022/03/17 09:54:47;;;;;;;16.50;2.15;;;8.30;99.90;;;;;;5057595;28;20047;-76
2022/03/17 09:57:16;;;;;;;10.45;2.00;;;8.30;99.90;;;;;;5058324;28;20048;-75
2022/03/17 09:59:48;;;;;;;8.63;1.50;;;8.40;99.90;;;;;;5029795;28;20033;-75
2022/03/17 10:02:16;;;;;;;10.50;1.75;;;8.50;99.90;;;;;;5058271;28;20067;-75
2022/03/17 10:04:46;;;;;;;14.95;2.15;;;8.70;99.90;;;;;;5054640;28;20647;-74
2022/03/17 10:07:14;;;;;;;10.77;2.10;;;8.70;99.90;;;;;;5039862;28;20067;-73
2022/03/17 10:09:42;;;;;;;12.05;1.50;;;8.80;99.90;;;;;;5057632;28;20040;-74
2022/03/17 10:12:12;;;;;;;14.00;1.92;;;8.90;99.90;;;;;;5048547;28;20048;-74
2022/03/17 10:14:43;;;;;;;9.38;1.48;;;8.90;99.90;;;;;;5045072;28;20048;-74
2022/03/17 10:17:34;;;;;;;8.93;1.55;;;9.00;99.90;;;;;;5056975;28;20055;-75
2022/03/17 10:20:13;;;;;;;13.70;1.52;;;9.10;99.90;;;;;;5058575;28;20048;-74
2022/03/17 10:22:54;;;;;;;9.65;1.40;;;9.10;99.90;;;;;;5058485;28;20195;-74
2022/03/17 10:25:25;;;;;;;7.88;1.23;;;9.20;99.90;;;;;;5037662;28;20048;-75
2022/03/17 10:27:54;;;;;;;9.75;1.55;;;9.20;99.90;;;;;;5024785;28;20056;-75
2022/03/17 10:30:36;;;;;;;10.43;1.33;;;9.20;99.90;;;;;;5033213;28;20040;-75
2022/03/17 10:33:11;;;;;;;7.70;1.13;;;9.20;99.90;;;;;;5056654;28;20125;-76
2022/03/17 10:35:38;;;;;;;8.68;1.83;;;9.30;99.90;;;;;;5038472;28;20055;-76
2022/03/17 10:38:16;;;;;;;8.25;1.20;;;9.40;99.90;;;;;;5039237;28;20048;-75
2022/03/17 10:40:44;;;;;;;9.40;1.20;;;9.50;99.90;;;;;;5037021;28;20045;-76
2022/03/17 10:43:19;;;;;;;10.10;1.65;;;9.70;99.90;;;;;;5036177;28;20130;-76
2022/03/17 10:45:47;;;;;;;8.85;1.63;;;9.90;99.90;;;;;;5034701;28;20079;-76
2022/03/17 10:48:12;;;;;;;11.52;1.65;;;10.20;99.90;;;;;;4937925;28;3413760;-76
2022/03/17 10:50:43;;;;;;;9.73;1.15;;;10.20;99.90;;;;;;5058009;28;20052;-76
2022/03/17 10:53:09;;;;;;;8.25;1.10;;;10.10;99.90;;;;;;5053120;28;20064;-76
2022/03/17 10:55:37;;;;;;;13.57;1.48;;;10.00;99.90;;;;;;5045677;28;20106;-76
2022/03/17 10:58:21;;;;;;;9.63;1.40;;;10.00;99.90;;;;;;5056262;28;20657;-76
2022/03/17 11:00:50;;;;;;;9.40;1.48;;;10.00;99.90;;;;;;5040180;28;20040;-76
2022/03/17 11:03:20;;;;;;;11.20;2.00;;;10.00;99.90;;;;;;5053448;28;20129;-77
2022/03/17 11:05:51;;;;;;;7.32;1.10;;;10.10;99.90;;;;;;5041532;28;20098;-76
2022/03/17 11:08:18;;;;;;;9.30;2.50;;;10.30;99.90;;;;;;5031502;28;20056;-76
2022/03/17 11:10:44;;;;;;;5.88;1.10;;;10.40;99.90;;;;;;5057641;28;20175;-76
2022/03/17 11:13:11;;;;;;;11.55;1.77;;;10.50;99.90;;;;;;5058324;28;20052;-76
2022/03/17 11:16:04;;;;;;;8.07;1.30;;;10.50;99.90;;;;;;5057196;28;20428;-76
2022/03/17 11:18:36;;;;;;;5.95;1.48;;;10.50;99.90;;;;;;5036389;28;20052;-77
2022/03/17 11:21:20;;;;;;;9.38;1.20;;;10.40;99.90;;;;;;5058638;28;20059;-77
2022/03/17 11:23:56;;;;;;;14.80;1.60;;;10.30;99.90;;;;;;5044724;28;20056;-77
2022/03/17 11:26:39;;;;;;;9.25;1.45;;;10.40;99.90;;;;;;5057185;28;20036;-77
2022/03/17 11:29:21;;;;;;;14.65;1.52;;;10.30;99.90;;;;;;5058597;28;20041;-76
2022/03/17 11:31:59;;;;;;;10.48;2.40;;;10.60;99.90;;;;;;5040972;28;20048;-77
2022/03/17 11:34:42;;;;;;;9.68;1.65;;;10.60;99.90;;;;;;5019528;28;20044;-76
2022/03/17 11:37:19;;;;;;;9.88;1.55;;;10.50;99.90;;;;;;5038593;28;20168;-76
2022/03/17 11:40:09;;;;;;;8.90;1.42;;;10.40;99.90;;;;;;5029843;28;20045;-76
2022/03/17 11:42:35;;;;;;;10.55;2.00;;;10.50;99.90;;;;;;5038101;28;20065;-76
2022/03/17 11:45:24;;;;;;;12.45;2.08;;;10.80;99.90;;;;;;5037699;28;20107;-76
2022/03/17 11:48:01;;;;;;;9.95;1.65;;;11.10;99.90;;;;;;5039411;28;20470;-77
2022/03/17 11:50:38;;;;;;;;;;;11.20;99.90;;;;;;5057187;28;20056;-76
2022/03/17 11:53:20;;;;;;;8.57;1.38;;;11.20;99.90;;;;;;5023523;28;20018;-77
2022/03/17 11:55:46;;;;;;;11.30;1.70;;;11.30;99.90;;;;;;5057316;28;20708;-77
2022/03/17 11:58:39;;;;;;;11.63;1.40;;;11.30;99.90;;;;;;5059961;28;20082;-77
2022/03/17 12:01:13;;;;;;;12.95;2.00;;;11.30;99.90;;;;;;5062206;28;20049;-77
2022/03/17 12:03:44;;;;;;;10.52;1.50;;;11.30;99.90;;;;;;5037583;28;20053;-78
2022/03/17 12:06:46;;;;;;;6.75;1.45;;;11.10;99.90;;;;;;5032354;28;20049;-77
2022/03/17 12:09:11;;;;;;;7.97;1.38;;;10.90;99.90;;;;;;5068785;28;20131;-76
2022/03/17 12:11:43;;;;;;;9.43;1.98;;;10.80;99.90;;;;;;5061497;28;20072;-77
2022/03/17 12:14:18;;;;;;;11.02;1.60;;;10.90;99.90;;;;;;5023488;28;20505;-77
2022/03/17 12:16:58;;;;;;;9.18;1.88;;;11.00;99.90;;;;;;5022834;28;20052;-78
2022/03/17 12:19:35;;;;;;;7.65;1.50;;;11.30;99.90;;;;;;5039297;28;20051;-77
2022/03/17 12:22:01;;;;;;;8.25;1.80;;;11.50;99.90;;;;;;5043621;28;20080;-78
2022/03/17 12:24:40;;;;;;;7.47;1.40;;;11.80;99.90;;;;;;5060732;28;20188;-78
2022/03/17 12:27:30;;;;;;;13.82;2.10;;;11.90;99.90;;;;;;5061016;28;20055;-77
2022/03/17 12:30:01;;;;;;;9.73;1.90;;;11.90;99.90;;;;;;5029644;28;20048;-77
2022/03/17 12:32:29;;;;;;;7.90;1.48;;;11.90;99.90;;;;;;5022549;28;20057;-77
2022/03/17 12:34:57;;;;;;;9.25;1.52;;;11.90;99.90;;;;;;5041015;28;20101;-77
2022/03/17 12:37:26;;;;;;;7.18;1.45;;;11.80;99.90;;;;;;5060414;28;20132;-77
2022/03/17 12:39:54;;;;;;;9.00;1.77;;;11.80;99.90;;;;;;5038906;28;20063;-77
2022/03/17 12:42:27;;;;;;;10.85;1.60;;;11.90;99.90;;;;;;5040080;28;20519;-76
2022/03/17 12:45:00;;;;;;;12.87;1.57;;;11.80;99.90;;;;;;5039549;28;20040;-78
2022/03/17 12:47:30;;;;;;;8.88;1.38;;;11.90;99.90;;;;;;5054082;28;20352;-76
2022/03/17 12:49:58;;;;;;;9.05;1.55;;;12.00;99.90;;;;;;5051057;28;20060;-77
2022/03/17 12:52:26;;;;;;;9.90;1.20;;;12.00;99.90;;;;;;5039994;28;20053;-77
2022/03/17 12:54:54;;;;;;;5.85;1.27;;;12.10;99.90;;;;;;5042080;28;20053;-77
2022/03/17 12:57:23;;;;;;;8.95;1.20;;;12.10;99.90;;;;;;5037950;28;20045;-77
2022/03/17 12:59:50;;;;;;;12.15;1.40;;;12.10;99.90;;;;;;5038944;28;20813;-77
2022/03/17 13:02:17;;;;;;;9.35;1.40;;;12.10;99.10;;;;;;5052865;28;20443;-77